sensor_id;sensor_type;location;lat;lon;timestamp;temperature;humidity
61412;DHT22;47278;49.732;7.690;2022-11-11T00:01:59;8.10;99.90
61412;DHT22;47278;49.732;7.690;2022-11-11T00:04:25;8.10;99.90
61412;DHT22;47278;49.732;7.690;2022-11-11T00:06:50;8.10;99.90
61412;DHT22;47278;49.732;7.690;2022-11-11T00:09:17;8.10;99.90
61412;DHT22;47278;49.732;7.690;2022-11-11T00:11:43;8.20;99.90
61412;DHT22;47278;49.732;7.690;2022-11-11T00:14:08;8.10;99.90
61412;DHT22;47278;49.732;7.690;2022-11-11T00:16:34;8.20;99.90
61412;DHT22;47278;49.732;7.690;2022-11-11T00:19:18;8.10;99.90
61412;DHT22;47278;49.732;7.690;2022-11-11T00:22:02;8.00;99.90
61412;DHT22;47278;49.732;7.690;2022-11-11T00:24:47;8.10;99.90
61412;DHT22;47278;49.732;7.690;2022-11-11T00:27:30;8.00;99.90
61412;DHT22;47278;49.732;7.690;2022-11-11T00:29:56;8.00;99.90
61412;DHT22;47278;49.732;7.690;2022-11-11T00:32:22;8.00;99.90
61412;DHT22;47278;49.732;7.690;2022-11-11T00:34:50;8.00;99.90
61412;DHT22;47278;49.732;7.690;2022-11-11T00:37:35;8.00;99.90
61412;DHT22;47278;49.732;7.690;2022-11-11T00:40:00;8.00;99.90
61412;DHT22;47278;49.732;7.690;2022-11-11T00:42:26;8.00;99.90
61412;DHT22;47278;49.732;7.690;2022-11-11T00:44:52;7.90;99.90
61412;DHT22;47278;49.732;7.690;2022-11-11T00:47:17;8.00;99.90
61412;DHT22;47278;49.732;7.690;2022-11-11T00:50:03;8.00;99.90
61412;DHT22;47278;49.732;7.690;2022-11-11T00:52:47;9.60;99.90
61412;DHT22;47278;49.732;7.690;2022-11-11T00:55:13;8.00;99.90
61412;DHT22;47278;49.732;7.690;2022-11-11T00:57:38;8.00;99.90
61412;DHT22;47278;49.732;7.690;2022-11-11T01:00:04;7.90;99.90
61412;DHT22;47278;49.732;7.690;2022-11-11T01:02:31;7.80;99.90
61412;DHT22;47278;49.732;7.690;2022-11-11T01:04:57;9.30;99.90
61412;DHT22;47278;49.732;7.690;2022-11-11T01:07:22;7.90;99.90
61412;DHT22;47278;49.732;7.690;2022-11-11T01:09:48;8.20;99.90
61412;DHT22;47278;49.732;7.690;2022-11-11T01:12:14;8.00;99.90
61412;DHT22;47278;49.732;7.690;2022-11-11T01:14:39;8.00;99.90
61412;DHT22;47278;49.732;7.690;2022-11-11T01:17:05;8.00;99.90
61412;DHT22;47278;49.732;7.690;2022-11-11T01:19:31;7.90;99.90
61412;DHT22;47278;49.732;7.690;2022-11-11T01:21:56;7.90;99.90
61412;DHT22;47278;49.732;7.690;2022-11-11T01:24:22;7.80;99.90
61412;DHT22;47278;49.732;7.690;2022-11-11T01:26:48;7.80;99.90
61412;DHT22;47278;49.732;7.690;2022-11-11T01:29:14;7.80;99.90
61412;DHT22;47278;49.732;7.690;2022-11-11T01:31:39;7.90;99.90
61412;DHT22;47278;49.732;7.690;2022-11-11T01:34:05;7.80;99.90
61412;DHT22;47278;49.732;7.690;2022-11-11T01:36:30;7.80;99.90
61412;DHT22;47278;49.732;7.690;2022-11-11T01:38:57;7.80;99.90
61412;DHT22;47278;49.732;7.690;2022-11-11T01:41:26;7.80;99.90
61412;DHT22;47278;49.732;7.690;2022-11-11T01:43:59;7.80;99.90
61412;DHT22;47278;49.732;7.690;2022-11-11T01:46:35;7.80;99.90
61412;DHT22;47278;49.732;7.690;2022-11-11T01:49:06;7.80;99.90
61412;DHT22;47278;49.732;7.690;2022-11-11T01:51:53;7.80;99.90
61412;DHT22;47278;49.732;7.690;2022-11-11T01:54:31;7.80;99.90
61412;DHT22;47278;49.732;7.690;2022-11-11T01:57:05;7.80;99.90
61412;DHT22;47278;49.732;7.690;2022-11-11T01:59:34;7.80;99.90
61412;DHT22;47278;49.732;7.690;2022-11-11T02:02:02;7.70;99.90
61412;DHT22;47278;49.732;7.690;2022-11-11T02:04:30;5.90;99.90
61412;DHT22;47278;49.732;7.690;2022-11-11T02:07:14;7.70;99.90
61412;DHT22;47278;49.732;7.690;2022-11-11T02:09:40;7.70;99.90
61412;DHT22;47278;49.732;7.690;2022-11-11T02:12:07;7.70;99.90
61412;DHT22;47278;49.732;7.690;2022-11-11T02:14:53;7.70;99.90
61412;DHT22;47278;49.732;7.690;2022-11-11T02:17:19;7.60;99.90
61412;DHT22;47278;49.732;7.690;2022-11-11T02:19:47;7.50;99.90
61412;DHT22;47278;49.732;7.690;2022-11-11T02:22:21;7.60;99.90
61412;DHT22;47278;49.732;7.690;2022-11-11T02:24:47;7.60;99.90
61412;DHT22;47278;49.732;7.690;2022-11-11T02:27:14;7.60;99.90
61412;DHT22;47278;49.732;7.690;2022-11-11T02:29:40;7.60;99.90
61412;DHT22;47278;49.732;7.690;2022-11-11T02:32:07;7.50;99.90
61412;DHT22;47278;49.732;7.690;2022-11-11T02:34:32;7.40;99.90
61412;DHT22;47278;49.732;7.690;2022-11-11T02:36:59;7.40;99.90
61412;DHT22;47278;49.732;7.690;2022-11-11T02:39:25;7.40;99.90
61412;DHT22;47278;49.732;7.690;2022-11-11T02:41:51;7.40;99.90
61412;DHT22;47278;49.732;7.690;2022-11-11T02:44:23;7.30;99.90
61412;DHT22;47278;49.732;7.690;2022-11-11T02:46:49;7.40;99.90
61412;DHT22;47278;49.732;7.690;2022-11-11T02:49:15;7.40;99.90
61412;DHT22;47278;49.732;7.690;2022-11-11T02:51:40;7.40;99.90
61412;DHT22;47278;49.732;7.690;2022-11-11T02:54:06;7.40;99.90
61412;DHT22;47278;49.732;7.690;2022-11-11T02:56:31;7.40;99.90
61412;DHT22;47278;49.732;7.690;2022-11-11T02:59:16;7.40;99.90
61412;DHT22;47278;49.732;7.690;2022-11-11T03:01:42;7.40;99.90
61412;DHT22;47278;49.732;7.690;2022-11-11T03:04:07;7.40;99.90
61412;DHT22;47278;49.732;7.690;2022-11-11T03:06:33;7.30;99.90
61412;DHT22;47278;49.732;7.690;2022-11-11T03:08:58;7.30;99.90
61412;DHT22;47278;49.732;7.690;2022-11-11T03:11:24;7.40;99.90
61412;DHT22;47278;49.732;7.690;2022-11-11T03:13:53;7.30;99.90
61412;DHT22;47278;49.732;7.690;2022-11-11T03:16:18;7.30;99.90
61412;DHT22;47278;49.732;7.690;2022-11-11T03:19:03;7.30;99.90
61412;DHT22;47278;49.732;7.690;2022-11-11T03:21:28;7.30;99.90
61412;DHT22;47278;49.732;7.690;2022-11-11T03:23:54;7.20;99.90
61412;DHT22;47278;49.732;7.690;2022-11-11T03:26:19;7.20;99.90
61412;DHT22;47278;49.732;7.690;2022-11-11T03:28:45;7.20;99.90
61412;DHT22;47278;49.732;7.690;2022-11-11T03:31:11;7.10;99.90
61412;DHT22;47278;49.732;7.690;2022-11-11T03:33:36;7.10;99.90
61412;DHT22;47278;49.732;7.690;2022-11-11T03:36:02;7.10;99.90
61412;DHT22;47278;49.732;7.690;2022-11-11T03:38:27;7.10;99.90
61412;DHT22;47278;49.732;7.690;2022-11-11T03:40:54;7.00;99.90
61412;DHT22;47278;49.732;7.690;2022-11-11T03:43:21;7.00;99.90
61412;DHT22;47278;49.732;7.690;2022-11-11T03:45:47;7.00;99.90
61412;DHT22;47278;49.732;7.690;2022-11-11T03:48:13;6.90;99.90
61412;DHT22;47278;49.732;7.690;2022-11-11T03:50:39;6.80;99.90
61412;DHT22;47278;49.732;7.690;2022-11-11T03:53:04;6.80;99.90
61412;DHT22;47278;49.732;7.690;2022-11-11T03:55:30;6.70;99.90
61412;DHT22;47278;49.732;7.690;2022-11-11T03:57:56;6.80;99.90
61412;DHT22;47278;49.732;7.690;2022-11-11T04:00:25;6.80;99.90
61412;DHT22;47278;49.732;7.690;2022-11-11T04:02:51;6.70;99.90
61412;DHT22;47278;49.732;7.690;2022-11-11T04:05:35;6.70;99.90
61412;DHT22;47278;49.732;7.690;2022-11-11T04:08:20;6.70;99.90
61412;DHT22;47278;49.732;7.690;2022-11-11T04:11:06;6.60;99.90
61412;DHT22;47278;49.732;7.690;2022-11-11T04:13:32;6.60;99.90
61412;DHT22;47278;49.732;7.690;2022-11-11T04:16:16;6.60;99.90
61412;DHT22;47278;49.732;7.690;2022-11-11T04:18:42;6.60;99.90
61412;DHT22;47278;49.732;7.690;2022-11-11T04:21:26;6.60;99.90
61412;DHT22;47278;49.732;7.690;2022-11-11T04:24:08;6.60;99.90
61412;DHT22;47278;49.732;7.690;2022-11-11T04:26:53;6.60;99.90
61412;DHT22;47278;49.732;7.690;2022-11-11T04:29:18;6.60;99.90
61412;DHT22;47278;49.732;7.690;2022-11-11T04:31:58;6.60;99.90
61412;DHT22;47278;49.732;7.690;2022-11-11T04:34:43;6.60;99.90
61412;DHT22;47278;49.732;7.690;2022-11-11T04:37:09;6.50;99.90
61412;DHT22;47278;49.732;7.690;2022-11-11T04:39:34;6.50;99.90
61412;DHT22;47278;49.732;7.690;2022-11-11T04:42:19;6.50;99.90
61412;DHT22;47278;49.732;7.690;2022-11-11T04:44:44;6.50;99.90
61412;DHT22;47278;49.732;7.690;2022-11-11T04:47:28;6.50;99.90
61412;DHT22;47278;49.732;7.690;2022-11-11T04:49:54;6.50;99.90
61412;DHT22;47278;49.732;7.690;2022-11-11T04:52:19;6.50;99.90
61412;DHT22;47278;49.732;7.690;2022-11-11T04:54:52;6.50;99.90
61412;DHT22;47278;49.732;7.690;2022-11-11T04:57:43;6.40;99.90
61412;DHT22;47278;49.732;7.690;2022-11-11T05:00:10;6.40;99.90
61412;DHT22;47278;49.732;7.690;2022-11-11T05:02:38;6.40;99.90
61412;DHT22;47278;49.732;7.690;2022-11-11T05:05:22;6.40;99.90
61412;DHT22;47278;49.732;7.690;2022-11-11T05:07:48;6.40;99.90
61412;DHT22;47278;49.732;7.690;2022-11-11T05:10:32;6.30;99.90
61412;DHT22;47278;49.732;7.690;2022-11-11T05:12:58;6.40;99.90
61412;DHT22;47278;49.732;7.690;2022-11-11T05:15:42;6.20;99.90
61412;DHT22;47278;49.732;7.690;2022-11-11T05:18:26;6.50;99.90
61412;DHT22;47278;49.732;7.690;2022-11-11T05:21:15;8.00;99.90
61412;DHT22;47278;49.732;7.690;2022-11-11T05:23:45;6.40;99.90
61412;DHT22;47278;49.732;7.690;2022-11-11T05:26:29;6.40;99.90
61412;DHT22;47278;49.732;7.690;2022-11-11T05:28:54;6.40;99.90
61412;DHT22;47278;49.732;7.690;2022-11-11T05:31:20;6.40;99.90
61412;DHT22;47278;49.732;7.690;2022-11-11T05:33:45;6.40;99.90
61412;DHT22;47278;49.732;7.690;2022-11-11T05:36:11;6.40;99.90
61412;DHT22;47278;49.732;7.690;2022-11-11T05:38:36;6.30;99.90
61412;DHT22;47278;49.732;7.690;2022-11-11T05:41:02;6.30;99.90
61412;DHT22;47278;49.732;7.690;2022-11-11T05:43:28;6.20;99.90
61412;DHT22;47278;49.732;7.690;2022-11-11T05:45:53;6.20;99.90
61412;DHT22;47278;49.732;7.690;2022-11-11T05:48:19;6.20;99.90
61412;DHT22;47278;49.732;7.690;2022-11-11T05:50:44;6.20;99.90
61412;DHT22;47278;49.732;7.690;2022-11-11T05:53:10;6.10;99.90
61412;DHT22;47278;49.732;7.690;2022-11-11T05:55:35;6.00;99.90
61412;DHT22;47278;49.732;7.690;2022-11-11T05:58:01;6.00;99.90
61412;DHT22;47278;49.732;7.690;2022-11-11T06:00:26;6.00;99.90
61412;DHT22;47278;49.732;7.690;2022-11-11T06:02:52;6.00;99.90
61412;DHT22;47278;49.732;7.690;2022-11-11T06:05:17;6.00;99.90
61412;DHT22;47278;49.732;7.690;2022-11-11T06:07:43;6.00;99.90
61412;DHT22;47278;49.732;7.690;2022-11-11T06:10:10;5.90;99.90
61412;DHT22;47278;49.732;7.690;2022-11-11T06:12:55;5.90;99.90
61412;DHT22;47278;49.732;7.690;2022-11-11T06:15:30;5.80;99.90
61412;DHT22;47278;49.732;7.690;2022-11-11T06:17:57;5.80;99.90
61412;DHT22;47278;49.732;7.690;2022-11-11T06:20:22;5.70;99.90
61412;DHT22;47278;49.732;7.690;2022-11-11T06:22:48;5.70;99.90
61412;DHT22;47278;49.732;7.690;2022-11-11T06:25:33;5.70;99.90
61412;DHT22;47278;49.732;7.690;2022-11-11T06:28:18;5.70;99.90
61412;DHT22;47278;49.732;7.690;2022-11-11T06:30:44;5.60;99.90
61412;DHT22;47278;49.732;7.690;2022-11-11T06:33:10;5.60;99.90
61412;DHT22;47278;49.732;7.690;2022-11-11T06:35:36;5.70;99.90
61412;DHT22;47278;49.732;7.690;2022-11-11T06:38:02;5.70;99.90
61412;DHT22;47278;49.732;7.690;2022-11-11T06:40:28;5.70;99.90
61412;DHT22;47278;49.732;7.690;2022-11-11T06:42:55;5.80;99.90
61412;DHT22;47278;49.732;7.690;2022-11-11T06:45:21;5.70;99.90
61412;DHT22;47278;49.732;7.690;2022-11-11T06:47:47;5.70;99.90
61412;DHT22;47278;49.732;7.690;2022-11-11T06:50:13;5.70;99.90
61412;DHT22;47278;49.732;7.690;2022-11-11T06:52:38;5.70;99.90
61412;DHT22;47278;49.732;7.690;2022-11-11T06:55:04;5.80;99.90
61412;DHT22;47278;49.732;7.690;2022-11-11T06:57:29;5.80;99.90
61412;DHT22;47278;49.732;7.690;2022-11-11T06:59:55;5.80;99.90
61412;DHT22;47278;49.732;7.690;2022-11-11T07:02:20;5.80;99.90
61412;DHT22;47278;49.732;7.690;2022-11-11T07:04:46;5.80;99.90
61412;DHT22;47278;49.732;7.690;2022-11-11T07:07:11;5.80;99.90
61412;DHT22;47278;49.732;7.690;2022-11-11T07:09:37;5.80;99.90
61412;DHT22;47278;49.732;7.690;2022-11-11T07:12:03;5.80;99.90
61412;DHT22;47278;49.732;7.690;2022-11-11T07:14:28;5.60;99.90
61412;DHT22;47278;49.732;7.690;2022-11-11T07:16:54;5.80;99.90
61412;DHT22;47278;49.732;7.690;2022-11-11T07:19:20;5.70;99.90
61412;DHT22;47278;49.732;7.690;2022-11-11T07:21:45;5.70;99.90
61412;DHT22;47278;49.732;7.690;2022-11-11T07:24:11;5.80;99.90
61412;DHT22;47278;49.732;7.690;2022-11-11T07:26:36;5.80;99.90
61412;DHT22;47278;49.732;7.690;2022-11-11T07:29:02;5.80;99.90
61412;DHT22;47278;49.732;7.690;2022-11-11T07:31:27;5.70;99.90
61412;DHT22;47278;49.732;7.690;2022-11-11T07:33:53;5.10;99.90
61412;DHT22;47278;49.732;7.690;2022-11-11T07:36:18;5.80;99.90
61412;DHT22;47278;49.732;7.690;2022-11-11T07:38:44;5.80;99.90
61412;DHT22;47278;49.732;7.690;2022-11-11T07:41:09;5.80;99.90
61412;DHT22;47278;49.732;7.690;2022-11-11T07:43:35;5.80;99.90
61412;DHT22;47278;49.732;7.690;2022-11-11T07:46:00;5.70;99.90
61412;DHT22;47278;49.732;7.690;2022-11-11T07:48:26;5.80;99.90
61412;DHT22;47278;49.732;7.690;2022-11-11T07:50:51;5.80;99.90
61412;DHT22;47278;49.732;7.690;2022-11-11T07:53:18;5.70;99.90
61412;DHT22;47278;49.732;7.690;2022-11-11T07:55:44;5.80;99.90
61412;DHT22;47278;49.732;7.690;2022-11-11T07:58:10;5.70;99.90
61412;DHT22;47278;49.732;7.690;2022-11-11T08:00:36;5.80;99.90
61412;DHT22;47278;49.732;7.690;2022-11-11T08:03:02;5.70;99.90
61412;DHT22;47278;49.732;7.690;2022-11-11T08:05:27;5.80;99.90
61412;DHT22;47278;49.732;7.690;2022-11-11T08:07:53;5.90;99.90
61412;DHT22;47278;49.732;7.690;2022-11-11T08:10:18;5.90;99.90
61412;DHT22;47278;49.732;7.690;2022-11-11T08:12:44;5.90;99.90
61412;DHT22;47278;49.732;7.690;2022-11-11T08:15:28;5.90;99.90
61412;DHT22;47278;49.732;7.690;2022-11-11T08:17:56;5.90;99.90
61412;DHT22;47278;49.732;7.690;2022-11-11T08:20:22;6.00;99.90
61412;DHT22;47278;49.732;7.690;2022-11-11T08:22:47;5.90;99.90
61412;DHT22;47278;49.732;7.690;2022-11-11T08:25:14;6.00;99.90
61412;DHT22;47278;49.732;7.690;2022-11-11T08:27:41;6.10;99.90
61412;DHT22;47278;49.732;7.690;2022-11-11T08:30:07;6.10;99.90
61412;DHT22;47278;49.732;7.690;2022-11-11T08:32:33;5.90;99.90
61412;DHT22;47278;49.732;7.690;2022-11-11T08:34:58;6.00;99.90
61412;DHT22;47278;49.732;7.690;2022-11-11T08:37:24;5.90;99.90
61412;DHT22;47278;49.732;7.690;2022-11-11T08:39:49;6.00;99.90
61412;DHT22;47278;49.732;7.690;2022-11-11T08:42:17;5.80;99.90
61412;DHT22;47278;49.732;7.690;2022-11-11T08:44:42;6.00;99.90
61412;DHT22;47278;49.732;7.690;2022-11-11T08:47:08;6.00;99.90
61412;DHT22;47278;49.732;7.690;2022-11-11T08:49:33;6.00;99.90
61412;DHT22;47278;49.732;7.690;2022-11-11T08:51:59;5.90;99.90
61412;DHT22;47278;49.732;7.690;2022-11-11T08:54:25;5.90;99.90
61412;DHT22;47278;49.732;7.690;2022-11-11T08:56:51;6.00;99.90
61412;DHT22;47278;49.732;7.690;2022-11-11T08:59:17;6.00;99.90
61412;DHT22;47278;49.732;7.690;2022-11-11T09:01:43;8.60;99.90
61412;DHT22;47278;49.732;7.690;2022-11-11T09:04:09;6.10;99.90
61412;DHT22;47278;49.732;7.690;2022-11-11T09:06:34;6.20;99.90
61412;DHT22;47278;49.732;7.690;2022-11-11T09:09:00;8.30;99.90
61412;DHT22;47278;49.732;7.690;2022-11-11T09:11:25;6.40;99.90
61412;DHT22;47278;49.732;7.690;2022-11-11T09:13:52;6.30;99.90
61412;DHT22;47278;49.732;7.690;2022-11-11T09:16:17;6.40;99.90
61412;DHT22;47278;49.732;7.690;2022-11-11T09:18:43;6.40;99.90
61412;DHT22;47278;49.732;7.690;2022-11-11T09:21:08;6.60;99.90
61412;DHT22;47278;49.732;7.690;2022-11-11T09:23:34;6.70;99.90
61412;DHT22;47278;49.732;7.690;2022-11-11T09:26:00;6.80;99.90
61412;DHT22;47278;49.732;7.690;2022-11-11T09:28:29;6.70;99.90
61412;DHT22;47278;49.732;7.690;2022-11-11T09:30:57;7.60;99.90
61412;DHT22;47278;49.732;7.690;2022-11-11T09:33:23;6.80;99.90
61412;DHT22;47278;49.732;7.690;2022-11-11T09:35:48;6.80;99.90
61412;DHT22;47278;49.732;7.690;2022-11-11T09:38:14;7.00;99.90
61412;DHT22;47278;49.732;7.690;2022-11-11T09:51:00;7.40;99.90
61412;DHT22;47278;49.732;7.690;2022-11-11T09:53:38;7.40;99.90
61412;DHT22;47278;49.732;7.690;2022-11-11T09:56:15;7.60;99.90
61412;DHT22;47278;49.732;7.690;2022-11-11T09:58:43;7.60;99.90
61412;DHT22;47278;49.732;7.690;2022-11-11T10:01:26;7.60;99.90
61412;DHT22;47278;49.732;7.690;2022-11-11T10:06:28;7.50;99.90
61412;DHT22;47278;49.732;7.690;2022-11-11T10:08:58;7.40;99.90
61412;DHT22;47278;49.732;7.690;2022-11-11T10:11:42;7.50;99.90
61412;DHT22;47278;49.732;7.690;2022-11-11T10:14:12;7.60;99.90
61412;DHT22;47278;49.732;7.690;2022-11-11T10:24:11;8.00;99.90
61412;DHT22;47278;49.732;7.690;2022-11-11T10:26:41;8.00;99.90
61412;DHT22;47278;49.732;7.690;2022-11-11T10:31:41;8.00;99.90
61412;DHT22;47278;49.732;7.690;2022-11-11T10:34:11;8.20;99.90
61412;DHT22;47278;49.732;7.690;2022-11-11T10:36:41;8.10;99.90
61412;DHT22;47278;49.732;7.690;2022-11-11T10:39:07;8.30;99.90
61412;DHT22;47278;49.732;7.690;2022-11-11T10:41:42;8.50;99.90
61412;DHT22;47278;49.732;7.690;2022-11-11T10:44:17;8.50;99.90
61412;DHT22;47278;49.732;7.690;2022-11-11T10:46:45;8.50;99.90
61412;DHT22;47278;49.732;7.690;2022-11-11T10:49:14;8.60;99.90
61412;DHT22;47278;49.732;7.690;2022-11-11T10:51:43;8.70;99.90
61412;DHT22;47278;49.732;7.690;2022-11-11T10:54:11;8.70;99.90
61412;DHT22;47278;49.732;7.690;2022-11-11T10:59:13;7.60;99.90
61412;DHT22;47278;49.732;7.690;2022-11-11T11:01:41;8.60;99.90
61412;DHT22;47278;49.732;7.690;2022-11-11T11:04:09;8.50;99.90
61412;DHT22;47278;49.732;7.690;2022-11-11T11:06:36;8.80;99.90
61412;DHT22;47278;49.732;7.690;2022-11-11T11:09:12;9.00;99.90
61412;DHT22;47278;49.732;7.690;2022-11-11T11:11:44;9.30;99.90
61412;DHT22;47278;49.732;7.690;2022-11-11T11:14:18;9.50;99.90
61412;DHT22;47278;49.732;7.690;2022-11-11T11:16:47;9.70;99.90
61412;DHT22;47278;49.732;7.690;2022-11-11T11:24:19;10.20;99.90
61412;DHT22;47278;49.732;7.690;2022-11-11T11:26:45;10.10;99.90
61412;DHT22;47278;49.732;7.690;2022-11-11T11:29:11;10.20;99.90
61412;DHT22;47278;49.732;7.690;2022-11-11T11:31:38;9.90;99.90
61412;DHT22;47278;49.732;7.690;2022-11-11T11:34:04;10.10;99.90
61412;DHT22;47278;49.732;7.690;2022-11-11T11:36:29;9.90;99.90
61412;DHT22;47278;49.732;7.690;2022-11-11T11:38:55;12.00;99.90
61412;DHT22;47278;49.732;7.690;2022-11-11T11:41:40;10.00;99.90
61412;DHT22;47278;49.732;7.690;2022-11-11T11:46:51;10.40;99.90
61412;DHT22;47278;49.732;7.690;2022-11-11T11:52:06;10.50;99.90
61412;DHT22;47278;49.732;7.690;2022-11-11T11:54:45;10.50;99.90
61412;DHT22;47278;49.732;7.690;2022-11-11T11:59:47;10.70;99.90
61412;DHT22;47278;49.732;7.690;2022-11-11T12:14:59;10.60;99.90
61412;DHT22;47278;49.732;7.690;2022-11-11T12:17:29;10.60;99.90
61412;DHT22;47278;49.732;7.690;2022-11-11T12:20:10;10.60;99.90
61412;DHT22;47278;49.732;7.690;2022-11-11T12:22:59;10.80;99.90
61412;DHT22;47278;49.732;7.690;2022-11-11T12:30:35;11.20;99.90
61412;DHT22;47278;49.732;7.690;2022-11-11T12:43:25;11.30;99.90
61412;DHT22;47278;49.732;7.690;2022-11-11T12:50:58;12.10;99.90
61412;DHT22;47278;49.732;7.690;2022-11-11T12:56:22;12.30;99.90
61412;DHT22;47278;49.732;7.690;2022-11-11T13:01:28;10.80;99.90
61412;DHT22;47278;49.732;7.690;2022-11-11T13:07:06;13.00;99.90
61412;DHT22;47278;49.732;7.690;2022-11-11T13:12:04;12.90;99.90
61412;DHT22;47278;49.732;7.690;2022-11-11T13:16:59;12.90;99.90
61412;DHT22;47278;49.732;7.690;2022-11-11T13:21:58;12.80;99.90
61412;DHT22;47278;49.732;7.690;2022-11-11T13:24:25;12.60;99.90
61412;DHT22;47278;49.732;7.690;2022-11-11T13:26:56;12.40;99.90
61412;DHT22;47278;49.732;7.690;2022-11-11T13:32:08;12.60;99.90
61412;DHT22;47278;49.732;7.690;2022-11-11T13:34:35;12.80;99.90
61412;DHT22;47278;49.732;7.690;2022-11-11T13:37:02;12.90;99.90
61412;DHT22;47278;49.732;7.690;2022-11-11T13:39:30;13.10;99.90
61412;DHT22;47278;49.732;7.690;2022-11-11T13:41:56;13.20;99.90
61412;DHT22;47278;49.732;7.690;2022-11-11T13:44:30;13.00;99.90
61412;DHT22;47278;49.732;7.690;2022-11-11T13:47:06;13.10;99.90
61412;DHT22;47278;49.732;7.690;2022-11-11T13:49:36;13.40;99.90
61412;DHT22;47278;49.732;7.690;2022-11-11T13:52:03;13.20;99.90
61412;DHT22;47278;49.732;7.690;2022-11-11T13:54:33;13.40;99.90
61412;DHT22;47278;49.732;7.690;2022-11-11T13:57:05;13.40;99.90
61412;DHT22;47278;49.732;7.690;2022-11-11T13:59:33;14.70;99.90
61412;DHT22;47278;49.732;7.690;2022-11-11T14:02:42;14.00;99.90
61412;DHT22;47278;49.732;7.690;2022-11-11T14:10:09;18.20;99.90
61412;DHT22;47278;49.732;7.690;2022-11-11T14:12:36;18.70;99.90
61412;DHT22;47278;49.732;7.690;2022-11-11T14:15:02;18.70;99.90
61412;DHT22;47278;49.732;7.690;2022-11-11T14:17:32;19.00;99.90
61412;DHT22;47278;49.732;7.690;2022-11-11T14:19:58;19.00;99.90
61412;DHT22;47278;49.732;7.690;2022-11-11T14:22:33;18.90;99.90
61412;DHT22;47278;49.732;7.690;2022-11-11T14:25:08;19.20;99.90
61412;DHT22;47278;49.732;7.690;2022-11-11T14:27:35;18.50;99.90
61412;DHT22;47278;49.732;7.690;2022-11-11T14:30:00;18.40;99.90
61412;DHT22;47278;49.732;7.690;2022-11-11T14:35:42;16.50;99.90
61412;DHT22;47278;49.732;7.690;2022-11-11T14:40:42;12.50;99.90
61412;DHT22;47278;49.732;7.690;2022-11-11T14:45:52;11.10;99.90
61412;DHT22;47278;49.732;7.690;2022-11-11T14:51:34;10.50;99.90
61412;DHT22;47278;49.732;7.690;2022-11-11T14:54:01;10.20;99.90
61412;DHT22;47278;49.732;7.690;2022-11-11T14:56:27;10.00;99.90
61412;DHT22;47278;49.732;7.690;2022-11-11T14:58:53;9.80;99.90
61412;DHT22;47278;49.732;7.690;2022-11-11T15:01:19;9.70;99.90
61412;DHT22;47278;49.732;7.690;2022-11-11T15:11:20;9.20;99.90
61412;DHT22;47278;49.732;7.690;2022-11-11T15:14:04;9.10;99.90
61412;DHT22;47278;49.732;7.690;2022-11-11T15:16:36;9.10;99.90
61412;DHT22;47278;49.732;7.690;2022-11-11T15:21:54;9.10;99.90
61412;DHT22;47278;49.732;7.690;2022-11-11T15:24:44;9.00;99.90
61412;DHT22;47278;49.732;7.690;2022-11-11T15:34:49;8.90;99.90
61412;DHT22;47278;49.732;7.690;2022-11-11T15:37:19;8.80;99.90
61412;DHT22;47278;49.732;7.690;2022-11-11T15:39:45;8.80;99.90
61412;DHT22;47278;49.732;7.690;2022-11-11T15:42:12;8.80;99.90
61412;DHT22;47278;49.732;7.690;2022-11-11T15:44:42;8.80;99.90
61412;DHT22;47278;49.732;7.690;2022-11-11T15:47:11;8.70;99.90
61412;DHT22;47278;49.732;7.690;2022-11-11T15:49:37;8.70;99.90
61412;DHT22;47278;49.732;7.690;2022-11-11T15:52:07;7.90;99.90
61412;DHT22;47278;49.732;7.690;2022-11-11T15:54:34;8.60;99.90
61412;DHT22;47278;49.732;7.690;2022-11-11T15:57:21;8.60;99.90
61412;DHT22;47278;49.732;7.690;2022-11-11T15:59:46;8.80;99.90
61412;DHT22;47278;49.732;7.690;2022-11-11T16:02:16;8.70;99.90
61412;DHT22;47278;49.732;7.690;2022-11-11T16:04:51;8.70;99.90
61412;DHT22;47278;49.732;7.690;2022-11-11T16:07:22;8.60;99.90
61412;DHT22;47278;49.732;7.690;2022-11-11T16:09:48;10.60;99.90
61412;DHT22;47278;49.732;7.690;2022-11-11T16:12:16;8.50;99.90
61412;DHT22;47278;49.732;7.690;2022-11-11T16:14:42;8.60;99.90
61412;DHT22;47278;49.732;7.690;2022-11-11T16:17:09;8.60;99.90
61412;DHT22;47278;49.732;7.690;2022-11-11T16:19:36;8.60;99.90
61412;DHT22;47278;49.732;7.690;2022-11-11T16:22:10;8.60;99.90
61412;DHT22;47278;49.732;7.690;2022-11-11T16:24:38;8.50;99.90
61412;DHT22;47278;49.732;7.690;2022-11-11T16:27:04;8.50;99.90
61412;DHT22;47278;49.732;7.690;2022-11-11T16:29:35;8.50;99.90
61412;DHT22;47278;49.732;7.690;2022-11-11T16:32:15;8.40;99.90
61412;DHT22;47278;49.732;7.690;2022-11-11T16:34:42;8.50;99.90
61412;DHT22;47278;49.732;7.690;2022-11-11T16:37:10;8.50;99.90
61412;DHT22;47278;49.732;7.690;2022-11-11T16:39:40;8.50;99.90
61412;DHT22;47278;49.732;7.690;2022-11-11T16:42:06;8.50;99.90
61412;DHT22;47278;49.732;7.690;2022-11-11T16:44:47;8.40;99.90
61412;DHT22;47278;49.732;7.690;2022-11-11T16:50:07;8.50;99.90
61412;DHT22;47278;49.732;7.690;2022-11-11T16:55:38;8.30;99.90
61412;DHT22;47278;49.732;7.690;2022-11-11T16:58:11;8.20;99.90
61412;DHT22;47278;49.732;7.690;2022-11-11T17:00:37;8.20;99.90
61412;DHT22;47278;49.732;7.690;2022-11-11T17:10:51;8.20;99.90
61412;DHT22;47278;49.732;7.690;2022-11-11T17:13:17;9.00;99.90
61412;DHT22;47278;49.732;7.690;2022-11-11T17:15:42;8.10;99.90
61412;DHT22;47278;49.732;7.690;2022-11-11T17:18:08;8.10;99.90
61412;DHT22;47278;49.732;7.690;2022-11-11T17:20:33;8.00;99.90
61412;DHT22;47278;49.732;7.690;2022-11-11T17:22:59;8.00;99.90
61412;DHT22;47278;49.732;7.690;2022-11-11T17:25:27;7.90;99.90
61412;DHT22;47278;49.732;7.690;2022-11-11T17:27:52;8.00;99.90
61412;DHT22;47278;49.732;7.690;2022-11-11T17:30:18;8.00;99.90
61412;DHT22;47278;49.732;7.690;2022-11-11T17:32:46;8.00;99.90
61412;DHT22;47278;49.732;7.690;2022-11-11T17:35:11;8.00;99.90
61412;DHT22;47278;49.732;7.690;2022-11-11T17:37:37;7.90;99.90
61412;DHT22;47278;49.732;7.690;2022-11-11T17:40:04;7.80;99.90
61412;DHT22;47278;49.732;7.690;2022-11-11T17:42:29;7.90;99.90
61412;DHT22;47278;49.732;7.690;2022-11-11T17:44:55;7.80;99.90
61412;DHT22;47278;49.732;7.690;2022-11-11T17:47:21;7.80;99.90
61412;DHT22;47278;49.732;7.690;2022-11-11T17:49:46;7.70;99.90
61412;DHT22;47278;49.732;7.690;2022-11-11T17:52:12;7.80;99.90
61412;DHT22;47278;49.732;7.690;2022-11-11T17:54:37;7.80;99.90
61412;DHT22;47278;49.732;7.690;2022-11-11T17:57:03;7.70;99.90
61412;DHT22;47278;49.732;7.690;2022-11-11T17:59:29;7.70;99.90
61412;DHT22;47278;49.732;7.690;2022-11-11T18:01:55;7.70;99.90
61412;DHT22;47278;49.732;7.690;2022-11-11T18:04:21;7.80;99.90
61412;DHT22;47278;49.732;7.690;2022-11-11T18:06:46;7.70;99.90
61412;DHT22;47278;49.732;7.690;2022-11-11T18:09:12;7.70;99.90
61412;DHT22;47278;49.732;7.690;2022-11-11T18:11:37;7.70;99.90
61412;DHT22;47278;49.732;7.690;2022-11-11T18:14:03;7.60;99.90
61412;DHT22;47278;49.732;7.690;2022-11-11T18:16:28;7.50;99.90